CheckWX is a tool to help pilots better visualize weather data.  It is not intended as a substitute for an official pre-flight weather briefing.

05:33:48 UTC

EGJB TAF
Guernsey Airport
Saint Peter Port, Guernsey
TAF EGJB 012002Z 0121/0206 06011KT CAVOK

Jun-1@
21:00 UTC

Jun-1 @ 21:00 UTC

Jun-2@
06:00 UTC

Jun-2 @ 06:00 UTC

TAF EGJB 012002Z 0121/0206 06011KT CAVOK
Wind
  • 060° at 11 KTS
Conditions
No significant weather
Cloud Levels
  • No significant clouds